createdAt,value
2023-02-26T00:00:26.498Z,101107.97
2023-02-26T00:02:54.630Z,101107.31
2023-02-26T00:05:22.514Z,101124.66
2023-02-26T00:07:50.368Z,101121.44
2023-02-26T00:10:18.568Z,101119.78
2023-02-26T00:12:48.617Z,101124.28
2023-02-26T00:15:18.399Z,101127.72
2023-02-26T00:17:54.733Z,101133.13
2023-02-26T00:20:23.922Z,101112.97
2023-02-26T00:22:52.325Z,101133.53
2023-02-26T00:25:20.312Z,101135.44
2023-02-26T00:27:50.239Z,101146.88
2023-02-26T00:30:18.920Z,101142.75
2023-02-26T00:32:47.770Z,101152.41
2023-02-26T00:35:17.279Z,101154.97
2023-02-26T00:37:59.268Z,101152.63
2023-02-26T00:40:36.332Z,101162.78
2023-02-26T00:43:07.569Z,101161.63
2023-02-26T00:45:36.566Z,101158.69
2023-02-26T00:48:39.480Z,101145.56
2023-02-26T00:51:16.391Z,101166.75
2023-02-26T00:53:51.168Z,101172.66
2023-02-26T00:56:19.181Z,101171.13
2023-02-26T00:58:48.439Z,101162.66
2023-02-26T01:01:16.521Z,101118.09
2023-02-26T01:03:44.787Z,101164.56
2023-02-26T01:06:16.511Z,101083.81
2023-02-26T01:08:52.408Z,101147.25
2023-02-26T01:11:20.708Z,101150.31
2023-02-26T01:13:50.624Z,101149.94
2023-02-26T01:16:23.530Z,101118.34
2023-02-26T01:18:57.307Z,101129.38
2023-02-26T01:21:32.410Z,101143.31
2023-02-26T01:24:03.169Z,101156.69
2023-02-26T01:26:31.313Z,101165.00
2023-02-26T01:29:01.195Z,101160.13
2023-02-26T01:31:39.636Z,101166.91
2023-02-26T01:34:12.960Z,101175.88
2023-02-26T01:36:47.355Z,101203.03
2023-02-26T01:39:20.916Z,101174.78
2023-02-26T01:41:52.210Z,101190.44
2023-02-26T01:44:27.683Z,101199.66
2023-02-26T01:47:10.508Z,101204.66
2023-02-26T01:49:39.331Z,101116.88
2023-02-26T01:52:08.645Z,101193.69
2023-02-26T01:54:38.466Z,101209.53
2023-02-26T01:57:09.428Z,101181.75
2023-02-26T01:59:42.302Z,101197.88
2023-02-26T02:02:13.296Z,101142.13
2023-02-26T02:04:42.406Z,101216.97
2023-02-26T02:07:10.965Z,101117.06
2023-02-26T02:09:39.105Z,101225.50
2023-02-26T02:12:23.386Z,101227.22
2023-02-26T02:15:05.014Z,101219.50
2023-02-26T02:17:46.197Z,101237.34
2023-02-26T02:20:53.578Z,101239.81
2023-02-26T02:23:29.704Z,101209.88
2023-02-26T02:26:36.420Z,101231.72
2023-02-26T02:29:22.974Z,101227.88
2023-02-26T02:31:57.006Z,101239.56
2023-02-26T02:34:30.940Z,101248.19
2023-02-26T02:37:02.733Z,101255.38
2023-02-26T02:39:35.691Z,101260.78
2023-02-26T02:42:09.267Z,101266.19
2023-02-26T02:44:42.308Z,101267.34
2023-02-26T02:47:13.918Z,101269.91
2023-02-26T02:49:46.867Z,101273.38
2023-02-26T02:52:20.589Z,101272.47
2023-02-26T02:54:52.569Z,101270.81
2023-02-26T02:57:24.249Z,101272.47
2023-02-26T02:59:58.644Z,101269.78
2023-02-26T03:02:31.981Z,101249.22
2023-02-26T03:05:00.149Z,101284.16
2023-02-26T03:07:28.205Z,101293.13
2023-02-26T03:09:56.335Z,101283.25
2023-02-26T03:12:27.125Z,101291.31
2023-02-26T03:14:55.061Z,101295.94
2023-02-26T03:17:33.709Z,101286.78
2023-02-26T03:20:11.388Z,101291.28
2023-02-26T03:22:46.766Z,101281.88
2023-02-26T03:25:20.033Z,101299.47
2023-02-26T03:27:53.672Z,101272.06
2023-02-26T03:30:27.631Z,101305.47
2023-02-26T03:33:04.271Z,101300.06
2023-02-26T03:35:39.979Z,101307.50
2023-02-26T03:38:12.141Z,101306.06
2023-02-26T03:40:44.758Z,101323.75
2023-02-26T03:43:19.244Z,101281.41
2023-02-26T03:45:50.620Z,101301.72
2023-02-26T03:48:25.326Z,101317.66
2023-02-26T03:50:56.630Z,101301.03
2023-02-26T03:53:28.214Z,101325.56
2023-02-26T03:56:03.098Z,101321.06
2023-02-26T03:58:31.372Z,101258.25
2023-02-26T04:01:04.403Z,101332.59
2023-02-26T04:03:40.283Z,101325.66
2023-02-26T04:06:08.895Z,101326.41
2023-02-26T04:08:37.312Z,101321.91
2023-02-26T04:11:09.473Z,101326.00
2023-02-26T04:13:37.292Z,101316.72
2023-02-26T04:16:05.914Z,101328.00
2023-02-26T04:18:35.272Z,101325.66
2023-02-26T04:21:03.173Z,101335.00
2023-02-26T04:23:31.339Z,101342.56
2023-02-26T04:25:59.307Z,101337.16
2023-02-26T04:28:27.132Z,101332.50
2023-02-26T04:30:55.134Z,101331.34
2023-02-26T04:33:23.375Z,101319.22
2023-02-26T04:35:52.564Z,101328.34
2023-02-26T04:38:20.549Z,101326.41
2023-02-26T04:40:48.614Z,101335.63
2023-02-26T04:43:16.450Z,101312.97
2023-02-26T04:45:46.683Z,101339.72
2023-02-26T04:48:14.928Z,101252.66
2023-02-26T04:50:43.120Z,101318.38
2023-02-26T04:53:12.376Z,101334.09
2023-02-26T04:55:41.551Z,101309.91
2023-02-26T04:58:10.108Z,101261.56
2023-02-26T05:00:38.242Z,101329.53
2023-02-26T05:03:06.243Z,101328.00
2023-02-26T05:05:34.336Z,101323.94
2023-02-26T05:08:02.280Z,101338.81
2023-02-26T05:10:31.592Z,101336.53
2023-02-26T05:12:59.474Z,101340.91
2023-02-26T05:15:27.466Z,101329.81
2023-02-26T05:17:55.417Z,101354.00
2023-02-26T05:20:23.439Z,101360.16
2023-02-26T05:22:51.443Z,101360.44
2023-02-26T05:25:19.686Z,101363.91
2023-02-26T05:27:49.106Z,101365.72
2023-02-26T05:30:18.215Z,101344.84
2023-02-26T05:32:46.213Z,101370.22
2023-02-26T05:35:14.219Z,101342.28
2023-02-26T05:37:42.217Z,101373.81
2023-02-26T05:40:11.972Z,101377.44
2023-02-26T05:42:40.292Z,101381.03
2023-02-26T05:45:11.093Z,101372.31
2023-02-26T05:47:39.552Z,101376.31
2023-02-26T05:50:08.658Z,101387.75
2023-02-26T05:52:36.570Z,101390.47
2023-02-26T05:55:04.956Z,101375.00
2023-02-26T05:57:32.790Z,101392.53
2023-02-26T06:00:00.830Z,101397.81
2023-02-26T06:02:30.161Z,101395.53
2023-02-26T06:04:58.014Z,101404.25
2023-02-26T06:07:25.950Z,101413.13
2023-02-26T06:09:54.083Z,101411.59
2023-02-26T06:12:22.046Z,101403.38
2023-02-26T06:14:49.994Z,101417.03
2023-02-26T06:17:17.936Z,101417.16
2023-02-26T06:19:47.124Z,101395.66
2023-02-26T06:22:15.109Z,101412.03
2023-02-26T06:24:43.131Z,101313.41
2023-02-26T06:27:11.018Z,101423.19
2023-02-26T06:29:39.243Z,101425.47
2023-02-26T06:32:07.839Z,101433.81
2023-02-26T06:34:35.784Z,101436.09
2023-02-26T06:37:05.192Z,101438.38
2023-02-26T06:39:33.850Z,101441.84
2023-02-26T06:42:01.702Z,101394.69
2023-02-26T06:44:29.644Z,101451.22
2023-02-26T06:46:57.634Z,101454.66
2023-02-26T06:49:25.499Z,101461.47
2023-02-26T06:51:53.402Z,101459.66
2023-02-26T06:54:22.734Z,101475.06
2023-02-26T06:56:50.627Z,101477.63
2023-02-26T06:59:18.571Z,101471.94
2023-02-26T07:01:46.589Z,101423.03
2023-02-26T07:04:14.396Z,101476.94
2023-02-26T07:06:42.655Z,101476.09
2023-02-26T07:09:10.771Z,101483.25
2023-02-26T07:11:40.070Z,101487.50
2023-02-26T07:14:07.983Z,101496.81
2023-02-26T07:16:36.007Z,101486.81
2023-02-26T07:19:03.852Z,101490.28
2023-02-26T07:21:31.931Z,101488.63
2023-02-26T07:23:59.876Z,101463.84
2023-02-26T07:26:28.049Z,101479.22
2023-02-26T07:28:57.575Z,101486.81
2023-02-26T07:31:25.666Z,101476.44
2023-02-26T07:33:53.645Z,101474.66
2023-02-26T07:36:21.707Z,101491.66
2023-02-26T07:38:49.633Z,101455.13
2023-02-26T07:41:17.485Z,101480.38
2023-02-26T07:43:45.391Z,101487.41
2023-02-26T07:46:14.895Z,101483.28
2023-02-26T07:48:42.777Z,101490.34
2023-02-26T07:51:11.195Z,101497.53
2023-02-26T07:53:39.254Z,101502.91
2023-02-26T07:56:07.112Z,101511.47
2023-02-26T07:58:35.012Z,101514.28
2023-02-26T08:01:03.038Z,101514.31
2023-02-26T08:03:32.604Z,101514.50
2023-02-26T08:06:00.979Z,101522.63
2023-02-26T08:08:29.172Z,101528.56
2023-02-26T08:10:57.045Z,101482.22
2023-02-26T08:13:24.986Z,101535.50
2023-02-26T08:15:53.039Z,101458.03
2023-02-26T08:18:21.027Z,101518.91
2023-02-26T08:20:52.154Z,101491.63
2023-02-26T08:23:20.127Z,101462.53
2023-02-26T08:25:49.010Z,101549.28
2023-02-26T08:28:17.225Z,101546.44
2023-02-26T08:30:45.214Z,101552.34
2023-02-26T08:33:13.047Z,101533.16
2023-02-26T08:35:40.968Z,101544.72
2023-02-26T08:38:10.345Z,101544.44
2023-02-26T08:40:38.185Z,101518.03
2023-02-26T08:43:06.131Z,101547.13
2023-02-26T08:45:34.057Z,101552.78
2023-02-26T08:48:01.925Z,101554.16
2023-02-26T08:50:29.953Z,101561.78
2023-02-26T08:52:58.239Z,101559.84
2023-02-26T08:55:27.513Z,101568.78
2023-02-26T08:57:55.494Z,101562.00
2023-02-26T09:00:23.965Z,101567.41
2023-02-26T09:02:52.093Z,101571.13
2023-02-26T09:05:20.463Z,101564.66
2023-02-26T09:07:48.488Z,101543.34
2023-02-26T09:10:16.877Z,101566.22
2023-02-26T09:12:46.813Z,101579.72
2023-02-26T09:15:15.745Z,101573.66
2023-02-26T09:17:44.095Z,101576.03
2023-02-26T09:20:13.772Z,101529.22
2023-02-26T09:22:41.724Z,101589.00
2023-02-26T09:25:10.427Z,101554.13
2023-02-26T09:27:38.500Z,101583.97
2023-02-26T09:30:09.169Z,101494.28
2023-02-26T09:32:38.081Z,101595.66
2023-02-26T09:35:06.611Z,101575.53
2023-02-26T09:37:35.105Z,101575.72
2023-02-26T09:40:03.405Z,101607.69
2023-02-26T09:42:45.923Z,101601.84
2023-02-26T09:45:26.818Z,101499.94
2023-02-26T09:47:56.418Z,101600.28
2023-02-26T09:50:27.301Z,101595.53
2023-02-26T09:53:02.855Z,101609.28
2023-02-26T09:55:35.410Z,101615.34
2023-02-26T09:58:06.268Z,101608.41
2023-02-26T10:00:39.581Z,101611.81
2023-02-26T10:03:22.901Z,101586.22
2023-02-26T10:06:10.504Z,101541.25
2023-02-26T10:08:48.383Z,101573.63
2023-02-26T10:11:28.540Z,101611.13
2023-02-26T10:14:01.836Z,101612.69
2023-02-26T10:16:36.447Z,101609.16
2023-02-26T10:19:07.592Z,101605.75
2023-02-26T10:21:40.631Z,101612.72
2023-02-26T10:24:15.312Z,101607.44
2023-02-26T10:26:51.267Z,101595.88
2023-02-26T10:29:25.409Z,101541.22
2023-02-26T10:32:19.322Z,101621.94
2023-02-26T10:34:53.009Z,101626.88
2023-02-26T10:37:25.351Z,101626.44
2023-02-26T10:39:57.318Z,101581.47
2023-02-26T10:42:29.723Z,101490.81
2023-02-26T10:45:12.739Z,101630.06
2023-02-26T10:47:50.973Z,101637.81
2023-02-26T10:50:22.148Z,101630.16
2023-02-26T10:52:52.588Z,101635.75
2023-02-26T10:55:32.675Z,101637.84
2023-02-26T10:58:06.155Z,101646.69
2023-02-26T11:00:36.474Z,101642.13
2023-02-26T11:03:08.435Z,101646.28
2023-02-26T11:05:36.560Z,101649.44
2023-02-26T11:08:11.987Z,101663.38
2023-02-26T11:10:48.729Z,101662.63
2023-02-26T11:13:16.672Z,101659.72
2023-02-26T11:15:50.251Z,101667.97
2023-02-26T11:18:23.220Z,101652.38
2023-02-26T11:20:54.249Z,101650.34
2023-02-26T11:23:25.929Z,101665.44
2023-02-26T11:26:02.397Z,101667.19
2023-02-26T11:28:36.067Z,101664.16
2023-02-26T11:31:08.001Z,101678.09
2023-02-26T11:33:40.217Z,101677.97
2023-02-26T11:36:12.832Z,101661.16
2023-02-26T11:38:41.791Z,101607.44
2023-02-26T11:41:10.492Z,101691.63
2023-02-26T11:43:44.877Z,101681.25
2023-02-26T11:46:14.406Z,101701.19
2023-02-26T11:48:47.460Z,101677.88
2023-02-26T11:51:19.948Z,101698.25
2023-02-26T11:53:52.340Z,101705.13
2023-02-26T11:56:28.411Z,101692.63
2023-02-26T11:58:56.987Z,101708.59
2023-02-26T12:01:29.351Z,101678.69
2023-02-26T12:04:03.229Z,101716.38
2023-02-26T12:06:31.517Z,101720.13
2023-02-26T12:09:00.200Z,101709.09
2023-02-26T12:11:46.476Z,101716.28
2023-02-26T12:14:30.516Z,101713.66
2023-02-26T12:17:11.840Z,101700.09
2023-02-26T12:19:50.228Z,101700.91
2023-02-26T12:22:37.474Z,101699.81
2023-02-26T12:25:23.627Z,101707.41
2023-02-26T12:28:10.173Z,101707.09
2023-02-26T12:31:05.285Z,101686.75
2023-02-26T12:33:45.075Z,101715.78
2023-02-26T12:36:36.364Z,101726.63
2023-02-26T12:39:30.930Z,101722.56
2023-02-26T12:42:12.014Z,101716.00
2023-02-26T12:45:01.487Z,101560.13
2023-02-26T12:47:39.365Z,101716.88
2023-02-26T12:50:20.060Z,101662.91
2023-02-26T12:53:11.369Z,101721.88
2023-02-26T12:55:53.526Z,101682.94
2023-02-26T12:58:55.660Z,101725.41
2023-02-26T13:01:59.537Z,101706.16
2023-02-26T13:05:01.622Z,101734.19
2023-02-26T13:07:54.295Z,101748.25
2023-02-26T13:10:31.988Z,101743.41
2023-02-26T13:13:15.499Z,101749.16
2023-02-26T13:15:55.506Z,101735.97
2023-02-26T13:18:30.487Z,101741.63
2023-02-26T13:21:02.484Z,101725.53
2023-02-26T13:23:38.666Z,101745.78
2023-02-26T13:26:10.803Z,101743.31
2023-02-26T13:28:43.814Z,101730.47
2023-02-26T13:31:17.141Z,101709.53
2023-02-26T13:33:46.605Z,101734.75
2023-02-26T13:36:16.922Z,101766.50
2023-02-26T13:39:04.922Z,101728.22
2023-02-26T13:41:45.685Z,101764.13
2023-02-26T13:44:26.364Z,101777.09
2023-02-26T13:47:17.082Z,101776.63
2023-02-26T13:49:57.345Z,101780.25
2023-02-26T13:52:27.502Z,101773.47
2023-02-26T13:54:59.511Z,101773.72
2023-02-26T13:57:44.853Z,101790.81
2023-02-26T14:00:28.405Z,101803.97
2023-02-26T14:02:58.854Z,101807.31
2023-02-26T14:05:36.973Z,101812.25
2023-02-26T14:08:24.045Z,101814.97
2023-02-26T14:11:00.085Z,101820.16
2023-02-26T14:13:36.229Z,101802.34
2023-02-26T14:16:13.282Z,101798.50
2023-02-26T14:18:51.366Z,101819.56
2023-02-26T14:21:39.443Z,101821.13
2023-02-26T14:24:16.602Z,101820.22
2023-02-26T14:26:49.331Z,101814.81
2023-02-26T14:29:22.832Z,101820.66
2023-02-26T14:32:14.162Z,101780.13
2023-02-26T14:34:50.301Z,101827.94
2023-02-26T14:37:22.991Z,101829.75
2023-02-26T14:39:56.415Z,101833.22
2023-02-26T14:42:35.595Z,101794.38
2023-02-26T14:45:15.323Z,101796.19
2023-02-26T14:47:44.839Z,101833.94
2023-02-26T14:50:16.429Z,101813.97
2023-02-26T14:53:08.733Z,101839.78
2023-02-26T14:55:55.277Z,101829.84
2023-02-26T14:58:47.356Z,101806.97
2023-02-26T15:01:29.312Z,101831.72
2023-02-26T15:04:15.223Z,101841.34
2023-02-26T15:07:07.450Z,101839.97
2023-02-26T15:09:49.468Z,101818.91
2023-02-26T15:12:31.012Z,101854.88
2023-02-26T15:15:20.426Z,101853.97
2023-02-26T15:18:04.749Z,101853.84
2023-02-26T15:20:41.927Z,101857.34
2023-02-26T15:23:26.095Z,101847.19
2023-02-26T15:25:57.370Z,101783.16
2023-02-26T15:28:30.204Z,101869.97
2023-02-26T15:31:02.312Z,101869.44
2023-02-26T15:33:30.426Z,101874.47
2023-02-26T15:35:59.919Z,101872.22
2023-02-26T15:38:28.487Z,101879.38
2023-02-26T15:41:05.381Z,101810.09
2023-02-26T15:43:33.437Z,101878.84
2023-02-26T15:46:03.705Z,101899.34
2023-02-26T15:48:37.580Z,101876.09
2023-02-26T15:51:08.200Z,101824.75
2023-02-26T15:53:41.186Z,101811.78
2023-02-26T15:56:13.023Z,101859.91
2023-02-26T15:58:46.238Z,101894.38
2023-02-26T16:01:19.265Z,101901.50
2023-02-26T16:03:50.955Z,101896.34
2023-02-26T16:06:21.599Z,101881.78
2023-02-26T16:08:49.524Z,101897.41
2023-02-26T16:11:18.828Z,101822.44
2023-02-26T16:13:49.417Z,101875.84
2023-02-26T16:16:23.644Z,101908.50
2023-02-26T16:18:53.058Z,101861.25
2023-02-26T16:21:29.023Z,101904.75
2023-02-26T16:23:59.002Z,101899.19
2023-02-26T16:26:31.431Z,101852.34
2023-02-26T16:29:03.011Z,101890.00
2023-02-26T16:31:37.219Z,101915.06
2023-02-26T16:34:08.828Z,101920.59
2023-02-26T16:36:41.448Z,101916.72
2023-02-26T16:39:18.255Z,101921.47
2023-02-26T16:41:49.766Z,101880.03
2023-02-26T16:44:40.867Z,101936.28
2023-02-26T16:47:11.901Z,101936.66
2023-02-26T16:49:42.749Z,101857.00
2023-02-26T16:52:18.058Z,101935.25
2023-02-26T16:54:56.057Z,101940.00
2023-02-26T16:57:30.426Z,101918.53
2023-02-26T17:00:04.964Z,101872.16
2023-02-26T17:02:38.055Z,101942.00
2023-02-26T17:05:15.879Z,101943.53
2023-02-26T17:07:49.364Z,101844.72
2023-02-26T17:10:22.752Z,101948.00
2023-02-26T17:12:52.973Z,101953.78
2023-02-26T17:15:27.990Z,101808.31
2023-02-26T17:17:58.306Z,101848.97
2023-02-26T17:20:27.714Z,101918.94
2023-02-26T17:22:56.414Z,101951.50
2023-02-26T17:25:25.430Z,101935.72
2023-02-26T17:27:53.880Z,101948.25
2023-02-26T17:30:25.684Z,101951.44
2023-02-26T17:32:53.723Z,101955.56
2023-02-26T17:35:22.939Z,101845.84
2023-02-26T17:37:52.245Z,101950.91
2023-02-26T17:40:23.016Z,101953.34
2023-02-26T17:42:52.044Z,101958.34
2023-02-26T17:45:21.200Z,101958.06
2023-02-26T17:47:50.267Z,101944.84
2023-02-26T17:50:36.629Z,101942.13
2023-02-26T17:53:06.375Z,101939.91
2023-02-26T17:55:35.736Z,101962.09
2023-02-26T17:58:04.137Z,101948.19
2023-02-26T18:00:33.607Z,101954.09
2023-02-26T18:03:01.473Z,101928.78
2023-02-26T18:05:32.880Z,101949.44
2023-02-26T18:08:01.092Z,101957.91
2023-02-26T18:10:28.862Z,101952.50
2023-02-26T18:12:56.733Z,101947.22
2023-02-26T18:15:25.599Z,101909.13
2023-02-26T18:17:53.506Z,101956.94
2023-02-26T18:20:23.455Z,101963.63
2023-02-26T18:22:52.881Z,101934.50
2023-02-26T18:25:20.737Z,101963.19
2023-02-26T18:27:54.702Z,101970.91
2023-02-26T18:30:25.228Z,101960.06
2023-02-26T18:32:53.188Z,101971.53
2023-02-26T18:35:21.230Z,101814.25
2023-02-26T18:37:50.346Z,101977.59
2023-02-26T18:40:22.845Z,101979.25
2023-02-26T18:42:51.678Z,101983.50
2023-02-26T18:45:20.704Z,101971.59
2023-02-26T18:47:49.552Z,101979.88
2023-02-26T18:50:18.955Z,101974.44
2023-02-26T18:52:46.857Z,101967.53
2023-02-26T18:55:15.787Z,101969.50
2023-02-26T18:57:45.224Z,101959.09
2023-02-26T19:00:15.490Z,101869.09
2023-02-26T19:02:45.589Z,101991.13
2023-02-26T19:05:14.598Z,101990.22
2023-02-26T19:07:42.822Z,101992.66
2023-02-26T19:10:14.765Z,101989.16
2023-02-26T19:12:44.919Z,101885.84
2023-02-26T19:15:14.308Z,101809.44
2023-02-26T19:17:43.104Z,102000.09
2023-02-26T19:20:12.620Z,101980.63
2023-02-26T19:22:42.030Z,102000.56
2023-02-26T19:25:10.711Z,101959.34
2023-02-26T19:27:39.661Z,102000.28
2023-02-26T19:30:10.682Z,101928.59
2023-02-26T19:32:38.739Z,101999.97
2023-02-26T19:35:08.237Z,101998.16
2023-02-26T19:37:36.260Z,101996.50
2023-02-26T19:40:08.783Z,101988.34
2023-02-26T19:42:36.914Z,101989.88
2023-02-26T19:45:05.852Z,101989.13
2023-02-26T19:47:35.305Z,101993.22
2023-02-26T19:50:03.460Z,101994.72
2023-02-26T19:52:31.850Z,102003.06
2023-02-26T19:54:59.919Z,102003.69
2023-02-26T19:57:28.807Z,101945.72
2023-02-26T19:59:57.008Z,101979.56
2023-02-26T20:02:25.034Z,102020.34
2023-02-26T20:04:55.124Z,102014.91
2023-02-26T20:07:23.082Z,102007.03
2023-02-26T20:09:51.082Z,102012.81
2023-02-26T20:12:19.106Z,102015.22
2023-02-26T20:14:46.919Z,102016.75
2023-02-26T20:17:14.935Z,102023.41
2023-02-26T20:19:44.510Z,102001.34
2023-02-26T20:22:13.880Z,101995.34
2023-02-26T20:24:41.820Z,102024.03
2023-02-26T20:27:09.755Z,102042.03
2023-02-26T20:29:37.593Z,101971.63
2023-02-26T20:32:06.351Z,101952.19
2023-02-26T20:34:34.364Z,102010.72
2023-02-26T20:37:02.176Z,102033.22
2023-02-26T20:39:31.719Z,102038.38
2023-02-26T20:41:59.714Z,101998.66
2023-02-26T20:44:27.623Z,101982.97
2023-02-26T20:46:55.603Z,102017.53
2023-02-26T20:49:24.817Z,102014.22
2023-02-26T20:51:52.614Z,102036.69
2023-02-26T20:54:22.261Z,102035.94
2023-02-26T20:56:51.874Z,102044.28
2023-02-26T20:59:20.338Z,102026.63
2023-02-26T21:01:51.393Z,102049.72
2023-02-26T21:04:19.840Z,101876.94
2023-02-26T21:06:47.816Z,102016.34
2023-02-26T21:09:15.858Z,102047.00
2023-02-26T21:11:44.009Z,102053.66
2023-02-26T21:14:13.373Z,102045.81
2023-02-26T21:16:41.964Z,102039.78
2023-02-26T21:19:09.860Z,102058.38
2023-02-26T21:21:37.715Z,102060.94
2023-02-26T21:24:06.217Z,102047.06
2023-02-26T21:26:35.257Z,102064.88
2023-02-26T21:29:04.955Z,102050.38
2023-02-26T21:31:34.992Z,102061.41
2023-02-26T21:34:29.960Z,102059.88
2023-02-26T21:36:51.256Z,102065.78
2023-02-26T21:39:19.172Z,102038.91
2023-02-26T21:41:47.001Z,102064.59
2023-02-26T21:44:14.998Z,102063.69
2023-02-26T21:46:44.369Z,102060.19
2023-02-26T21:49:12.191Z,102051.44
2023-02-26T21:51:40.010Z,102068.66
2023-02-26T21:54:08.148Z,102068.38
2023-02-26T21:56:35.987Z,102070.03
2023-02-26T21:59:03.894Z,102070.78
2023-02-26T22:01:31.934Z,102073.06
2023-02-26T22:04:01.156Z,102063.53
2023-02-26T22:06:29.221Z,102032.72
2023-02-26T22:08:57.307Z,102054.94
2023-02-26T22:11:25.372Z,102063.69
2023-02-26T22:13:53.442Z,102074.88
2023-02-26T22:16:21.572Z,102074.88
2023-02-26T22:18:49.483Z,102073.97
2023-02-26T22:21:18.860Z,102060.53
2023-02-26T22:23:46.915Z,102086.38
2023-02-26T22:26:14.904Z,102082.59
2023-02-26T22:28:42.837Z,102079.72
2023-02-26T22:31:11.491Z,102081.84
2023-02-26T22:33:39.607Z,102072.94
2023-02-26T22:36:08.470Z,102016.28
2023-02-26T22:38:38.026Z,102089.56
2023-02-26T22:41:06.161Z,102089.25
2023-02-26T22:43:34.125Z,102092.13
2023-02-26T22:46:02.663Z,102077.00
2023-02-26T22:48:30.478Z,102101.63
2023-02-26T22:50:58.463Z,102112.69
2023-02-26T22:53:26.496Z,102100.28
2023-02-26T22:55:55.732Z,102106.94
2023-02-26T22:58:23.592Z,102106.78
2023-02-26T23:00:52.917Z,102090.47
2023-02-26T23:03:20.781Z,102114.34
2023-02-26T23:05:48.705Z,102082.75
2023-02-26T23:08:16.726Z,102098.91
2023-02-26T23:10:46.256Z,102094.84
2023-02-26T23:13:15.996Z,102068.69
2023-02-26T23:15:44.006Z,102109.94
2023-02-26T23:18:11.834Z,102113.88
2023-02-26T23:20:39.950Z,102087.41
2023-02-26T23:23:08.128Z,102081.97
2023-02-26T23:25:35.999Z,102116.59
2023-02-26T23:28:03.899Z,102111.16
2023-02-26T23:30:34.241Z,102115.38
2023-02-26T23:33:02.380Z,102102.69
2023-02-26T23:35:30.219Z,102119.47
2023-02-26T23:37:58.377Z,102123.09
2023-02-26T23:40:26.363Z,102120.22
2023-02-26T23:42:54.267Z,102121.13
2023-02-26T23:45:22.272Z,102080.50
2023-02-26T23:47:51.831Z,102105.69
2023-02-26T23:50:20.681Z,102105.84
2023-02-26T23:52:48.691Z,102119.16
2023-02-26T23:55:16.685Z,102110.84
2023-02-26T23:57:44.990Z,102111.16
